createdAt,value
2018-09-29T00:00:51.683Z,1.95
2018-09-29T00:05:44.946Z,1.98
2018-09-29T00:10:38.186Z,2.40
2018-09-29T00:15:31.707Z,2.52
2018-09-29T00:20:24.940Z,2.60
2018-09-29T00:25:18.164Z,2.75
2018-09-29T00:30:11.490Z,2.67
2018-09-29T00:35:04.761Z,2.42
2018-09-29T00:39:57.970Z,2.20
2018-09-29T00:44:51.230Z,2.77
2018-09-29T00:49:44.506Z,2.10
2018-09-29T00:54:37.744Z,2.30
2018-09-29T00:59:30.993Z,2.58
2018-09-29T01:04:24.339Z,2.35
2018-09-29T01:09:17.575Z,2.35
2018-09-29T01:14:10.856Z,2.83
2018-09-29T01:19:04.097Z,2.58
2018-09-29T01:23:57.351Z,2.85
2018-09-29T01:28:50.559Z,2.80
2018-09-29T01:33:44.328Z,2.33
2018-09-29T01:38:37.583Z,2.30
2018-09-29T01:43:30.802Z,2.33
2018-09-29T01:48:24.668Z,2.67
2018-09-29T01:53:17.942Z,4.03
2018-09-29T01:58:11.200Z,2.62
2018-09-29T02:03:09.320Z,3.22
2018-09-29T02:08:02.648Z,2.80
2018-09-29T02:12:55.891Z,2.60
2018-09-29T02:17:49.132Z,2.65
2018-09-29T02:22:42.388Z,3.25
2018-09-29T02:27:35.621Z,3.08
2018-09-29T02:32:28.930Z,3.15
2018-09-29T02:37:22.171Z,2.80
2018-09-29T02:42:15.506Z,2.47
2018-09-29T02:47:08.737Z,3.00
2018-09-29T02:52:02.027Z,2.70
2018-09-29T02:56:55.264Z,3.08
2018-09-29T03:01:48.540Z,3.20
2018-09-29T03:06:41.818Z,3.52
2018-09-29T03:11:35.094Z,3.10
2018-09-29T03:16:28.402Z,3.40
2018-09-29T03:21:21.619Z,3.55
2018-09-29T03:26:14.843Z,2.98
2018-09-29T03:31:08.308Z,2.65
2018-09-29T03:36:01.568Z,3.08
2018-09-29T03:40:54.827Z,2.77
2018-09-29T03:45:48.070Z,2.55
2018-09-29T03:50:41.305Z,2.87
2018-09-29T03:55:34.539Z,3.02
2018-09-29T04:00:27.821Z,2.20
2018-09-29T04:05:21.091Z,2.15
2018-09-29T04:10:14.333Z,2.55
2018-09-29T04:15:08.652Z,2.37
2018-09-29T04:20:02.207Z,3.30
2018-09-29T04:24:55.457Z,2.05
2018-09-29T04:29:48.707Z,2.17
2018-09-29T04:34:41.932Z,1.98
2018-09-29T04:39:35.179Z,1.98
2018-09-29T04:44:28.413Z,1.95
2018-09-29T04:49:21.599Z,2.40
2018-09-29T04:54:14.887Z,2.55
2018-09-29T04:59:08.177Z,2.30
2018-09-29T05:04:01.475Z,2.90
2018-09-29T05:08:54.742Z,3.07
2018-09-29T05:13:48.106Z,2.65
2018-09-29T05:18:41.395Z,3.27
2018-09-29T05:23:34.636Z,2.58
2018-09-29T05:28:27.918Z,2.50
2018-09-29T05:33:21.171Z,2.95
2018-09-29T05:38:15.041Z,2.80
2018-09-29T05:43:08.332Z,2.95
2018-09-29T05:48:01.579Z,3.02
2018-09-29T05:52:54.868Z,2.75
2018-09-29T05:57:48.346Z,2.58
2018-09-29T06:02:41.634Z,2.55
2018-09-29T06:07:34.932Z,2.77
2018-09-29T06:12:28.152Z,2.98
2018-09-29T06:17:22.136Z,2.77
2018-09-29T06:22:15.396Z,2.70
2018-09-29T06:27:08.958Z,3.05
2018-09-29T06:32:02.239Z,2.52
2018-09-29T06:36:55.491Z,2.72
2018-09-29T06:41:48.786Z,2.58
2018-09-29T06:46:42.061Z,2.90
2018-09-29T06:51:35.301Z,2.47
2018-09-29T06:56:28.560Z,3.22
2018-09-29T07:01:21.795Z,2.77
2018-09-29T07:06:15.100Z,3.42
2018-09-29T07:11:08.331Z,2.98
2018-09-29T07:16:02.149Z,3.45
2018-09-29T07:20:55.393Z,3.12
2018-09-29T07:25:48.671Z,2.77
2018-09-29T07:30:41.921Z,3.15
2018-09-29T07:35:35.162Z,3.50
2018-09-29T07:40:28.443Z,3.22
2018-09-29T07:45:21.746Z,3.58
2018-09-29T07:50:15.084Z,3.30
2018-09-29T07:55:08.373Z,3.30
2018-09-29T08:00:01.657Z,4.20
2018-09-29T08:04:54.911Z,3.75
2018-09-29T08:09:48.161Z,3.50
2018-09-29T08:14:41.428Z,3.30
2018-09-29T08:19:34.672Z,3.55
2018-09-29T08:24:27.989Z,2.87
2018-09-29T08:29:21.973Z,2.80
2018-09-29T08:34:15.238Z,1.90
2018-09-29T08:39:09.258Z,2.20
2018-09-29T08:44:02.587Z,2.27
2018-09-29T08:48:55.842Z,2.25
2018-09-29T08:53:49.125Z,2.40
2018-09-29T08:58:42.305Z,2.58
2018-09-29T09:03:35.626Z,2.33
2018-09-29T09:08:28.873Z,2.37
2018-09-29T09:13:22.317Z,1.70
2018-09-29T09:18:15.733Z,2.42
2018-09-29T09:23:09.088Z,2.12
2018-09-29T09:28:02.351Z,2.47
2018-09-29T09:32:55.610Z,1.80
2018-09-29T09:37:48.924Z,1.90
2018-09-29T09:42:42.258Z,2.33
2018-09-29T09:47:35.555Z,1.60
2018-09-29T09:52:28.783Z,2.10
2018-09-29T09:57:22.037Z,1.72
2018-09-29T10:02:21.043Z,2.05
2018-09-29T10:07:14.261Z,1.87
2018-09-29T10:12:07.529Z,2.20
2018-09-29T10:17:01.375Z,1.50
2018-09-29T10:21:54.683Z,1.70
2018-09-29T10:26:47.981Z,1.75
2018-09-29T10:31:41.242Z,1.80
2018-09-29T10:36:35.017Z,1.87
2018-09-29T10:41:28.300Z,2.20
2018-09-29T10:46:23.014Z,1.62
2018-09-29T10:51:16.285Z,1.67
2018-09-29T10:56:09.549Z,1.62
2018-09-29T11:01:02.931Z,1.65
2018-09-29T11:05:56.230Z,2.30
2018-09-29T11:10:50.209Z,1.85
2018-09-29T11:15:43.513Z,2.35
2018-09-29T11:20:36.790Z,1.22
2018-09-29T11:25:30.061Z,1.60
2018-09-29T11:30:23.320Z,1.02
2018-09-29T11:35:16.868Z,1.12
2018-09-29T11:40:10.149Z,1.10
2018-09-29T11:45:03.617Z,1.17
2018-09-29T11:49:56.887Z,1.15
2018-09-29T11:54:50.117Z,0.82
2018-09-29T11:59:43.388Z,1.10
2018-09-29T12:04:36.671Z,1.02
2018-09-29T12:09:29.979Z,1.37
2018-09-29T12:14:23.249Z,1.17
2018-09-29T12:19:16.471Z,1.32
2018-09-29T12:24:09.712Z,1.60
2018-09-29T12:29:03.042Z,1.20
2018-09-29T12:33:57.026Z,1.30
2018-09-29T12:38:50.302Z,1.37
2018-09-29T12:43:43.553Z,0.93
2018-09-29T12:48:36.806Z,1.47
2018-09-29T12:53:30.078Z,1.00
2018-09-29T12:58:23.325Z,1.00
2018-09-29T13:03:16.592Z,0.90
2018-09-29T13:08:09.879Z,0.82
2018-09-29T13:13:03.643Z,0.90
2018-09-29T13:17:56.903Z,1.00
2018-09-29T13:22:50.181Z,1.27
2018-09-29T13:27:43.424Z,1.30
2018-09-29T13:32:36.737Z,1.10
2018-09-29T13:37:29.979Z,1.12
2018-09-29T13:42:23.252Z,3.02
2018-09-29T13:47:16.511Z,0.85
2018-09-29T13:52:09.757Z,1.27
2018-09-29T13:57:03.014Z,1.30
2018-09-29T14:01:56.308Z,1.17
2018-09-29T14:06:49.565Z,1.40
2018-09-29T14:11:42.816Z,1.20
2018-09-29T14:16:36.471Z,1.17
2018-09-29T14:21:30.416Z,1.07
2018-09-29T14:26:23.677Z,1.30
2018-09-29T14:31:17.511Z,1.30
2018-09-29T14:36:11.748Z,0.95
2018-09-29T14:41:05.629Z,1.17
2018-09-29T14:45:59.021Z,1.30
2018-09-29T14:50:52.301Z,1.25
2018-09-29T14:55:46.003Z,1.00
2018-09-29T15:00:39.221Z,1.07
2018-09-29T15:05:32.527Z,1.50
2018-09-29T15:10:25.780Z,1.43
2018-09-29T15:15:19.006Z,1.40
2018-09-29T15:20:12.312Z,5.75
2018-09-29T15:25:06.013Z,4.30
2018-09-29T15:29:59.251Z,2.15
2018-09-29T15:34:52.463Z,1.10
2018-09-29T15:39:46.496Z,1.82
2018-09-29T15:44:39.729Z,2.00
2018-09-29T15:49:32.976Z,1.15
2018-09-29T15:54:26.278Z,1.10
2018-09-29T15:59:19.531Z,1.27
2018-09-29T16:04:12.794Z,1.42
2018-09-29T16:09:08.380Z,1.50
2018-09-29T16:14:01.680Z,1.35
2018-09-29T16:18:54.889Z,1.17
2018-09-29T16:23:48.111Z,1.10
2018-09-29T16:28:41.415Z,2.02
2018-09-29T16:33:34.764Z,1.25
2018-09-29T16:38:28.109Z,1.00
2018-09-29T16:43:21.350Z,1.52
2018-09-29T16:48:14.652Z,1.45
2018-09-29T16:53:08.607Z,2.15
2018-09-29T16:58:02.035Z,1.40
2018-09-29T17:02:55.308Z,2.20
2018-09-29T17:07:48.557Z,2.22
2018-09-29T17:12:42.780Z,2.15
2018-09-29T17:17:36.261Z,2.17
2018-09-29T17:22:29.503Z,2.00
2018-09-29T17:27:22.748Z,2.33
2018-09-29T17:32:15.999Z,2.02
2018-09-29T17:37:09.250Z,2.33
2018-09-29T17:42:02.500Z,3.08
2018-09-29T17:46:55.755Z,2.72
2018-09-29T17:51:49.015Z,2.60
2018-09-29T17:56:42.255Z,4.90
2018-09-29T18:01:35.588Z,4.78
2018-09-29T18:06:29.565Z,3.33
2018-09-29T18:11:22.874Z,6.80
2018-09-29T18:16:16.047Z,4.17
2018-09-29T18:21:09.293Z,3.85
2018-09-29T18:26:02.551Z,5.80
2018-09-29T18:30:55.876Z,4.83
2018-09-29T18:35:49.108Z,4.20
2018-09-29T18:40:42.871Z,3.55
2018-09-29T18:45:36.139Z,4.12
2018-09-29T18:50:29.363Z,3.50
2018-09-29T18:55:22.590Z,5.30
2018-09-29T19:00:15.852Z,4.67
2018-09-29T19:05:09.105Z,4.30
2018-09-29T19:10:02.369Z,4.22
2018-09-29T19:14:55.618Z,3.90
2018-09-29T19:19:48.893Z,4.72
2018-09-29T19:24:42.133Z,4.20
2018-09-29T19:29:35.443Z,5.37
2018-09-29T19:34:28.688Z,4.92
2018-09-29T19:39:21.950Z,6.47
2018-09-29T19:44:15.187Z,5.42
2018-09-29T19:49:08.465Z,6.97
2018-09-29T19:54:01.680Z,6.65
2018-09-29T19:58:54.952Z,5.87
2018-09-29T20:03:48.302Z,5.45
2018-09-29T20:08:42.607Z,6.30
2018-09-29T20:13:35.864Z,6.53
2018-09-29T20:18:29.080Z,6.28
2018-09-29T20:23:22.366Z,6.50
2018-09-29T20:28:15.619Z,5.22
2018-09-29T20:33:08.863Z,5.62
2018-09-29T20:38:02.246Z,5.55
2018-09-29T20:42:55.495Z,6.20
2018-09-29T20:47:48.779Z,6.33
2018-09-29T20:52:42.055Z,7.03
2018-09-29T20:57:36.035Z,6.60
2018-09-29T21:02:29.284Z,7.37
2018-09-29T21:07:22.517Z,6.30
2018-09-29T21:12:15.778Z,7.22
2018-09-29T21:17:09.104Z,6.25
2018-09-29T21:22:02.384Z,7.03
2018-09-29T21:26:55.630Z,6.60
2018-09-29T21:31:48.883Z,6.12
2018-09-29T21:36:42.159Z,5.80
2018-09-29T21:41:35.468Z,4.47
2018-09-29T21:46:28.760Z,4.97
2018-09-29T21:51:22.008Z,4.83
2018-09-29T21:56:15.599Z,4.55
2018-09-29T22:01:14.603Z,4.73
2018-09-29T22:06:07.847Z,4.70
2018-09-29T22:11:02.200Z,4.60
2018-09-29T22:15:55.591Z,5.15
2018-09-29T22:20:48.907Z,5.28
2018-09-29T22:25:42.360Z,4.83
2018-09-29T22:30:35.606Z,4.85
2018-09-29T22:35:28.860Z,3.80
2018-09-29T22:40:22.097Z,4.17
2018-09-29T22:45:15.452Z,4.42
2018-09-29T22:50:08.738Z,4.10
2018-09-29T22:55:02.074Z,4.12
2018-09-29T22:59:55.300Z,4.17
2018-09-29T23:04:48.508Z,3.52
2018-09-29T23:09:41.804Z,4.30
2018-09-29T23:14:36.042Z,4.10
2018-09-29T23:19:29.302Z,3.92
2018-09-29T23:24:23.137Z,3.58
2018-09-29T23:29:16.368Z,3.60
2018-09-29T23:34:09.685Z,3.37
2018-09-29T23:39:05.374Z,3.55
2018-09-29T23:43:58.624Z,4.10
2018-09-29T23:48:51.822Z,3.75
2018-09-29T23:53:45.079Z,3.80
2018-09-29T23:58:38.348Z,3.72
